Terminal Aerodrome Forecast
Issued by NWS

Home | Current Version | Previous Version | Text Only | Print | Product List | Glossary On
Versions: 1 2 3 4 5 6 7 8 9 10 11 12
000
FTUS45 KTWC 201720
TAFOLS
TAF
KOLS 201720Z 2018/2118 20018G28KT P6SM FEW030 BKN070
     FM202000 22017G27KT P6SM VCSH FEW030 BKN050
     FM202200 25015G25KT P6SM -SHRA SCT020 OVC040
     FM210000 24010KT P6SM FEW020 BKN040
     FM210600 17007KT P6SM SKC=

USA.gov is the U.S. government's official web portal to all federal, state and local government web resources and services.